Flight Track Log - Related Links

Times and Time Zones

All times are in EST time to prevent confusion due to time zone crossing. See the JBU1105 flight status page for this flight to view local times or setup timezone preferences in your user account.


Time Position Orientation Groundspeed Altitude Reporting Facility
EST Latitude Longitude Course Direction KTS MPH feet Rate Location/Type
Sun 07:25:01 PM 40.6000 -73.8000 288° West 156 180 1,800  Level New York TRACON
Sun 07:26:01 PM 40.5667 -73.7833 159° South 207 238 3,400 1,850 Climbing New York TRACON
Sun 07:27:01 PM 40.5833 -73.6833 78° East 290 334 5,500 2,550 Climbing New York TRACON
Sun 07:28:01 PM 40.6167 -73.5833 66° East 309 356 8,500 2,800 Climbing New York TRACON
Sun 07:29:01 PM 40.7000 -73.5667 North 321 369 11,100 2,400 Climbing New York TRACON
Sun 07:30:00 PM 40.7332 -74.3770 288° West  Level Estimated
Sun 07:30:01 PM 40.8000 -73.5500 North 353 406 13,300  Level New York TRACON
Sun 07:31:01 PM 40.8833 -73.6000 336° Northwest 344 396 15,800 1,900 Climbing New York TRACON
Sun 07:32:01 PM 40.9667 -73.6667 329° Northwest 348 400 17,100 571 Climbing New York TRACON
Sun 07:33:07 PM 41.0500 -73.7333 329° Northwest 318 366 17,000 -50 Descending New York TRACON
Sun 07:34:01 PM 41.0833 -73.8333 294° West 284 327 17,000 -540 Level New York TRACON
Sun 07:36:27 PM 41.0553 -74.1336 263° West 319 367 15,200 -874 Descending New York Center
Sun 07:37:27 PM 41.1075 -74.2050 314° West 298 343 14,000 -1,750 Descending New York Center
Sun 07:38:27 PM 41.1653 -74.2961 310° West 298 343 11,700 -1,750 Descending New York Center
Sun 07:39:27 PM 41.1564 -74.3811 262° West 257 296 10,500 -900 Descending New York Center
Sun 07:40:27 PM 41.1494 -74.4689 264° West 226 260 9,900 -300 Descending New York Center
Sun 07:41:27 PM 41.1411 -74.5400 261° West 221 254 9,900  Level New York Center
Sun 07:42:27 PM 41.1361 -74.6250 266° West 216 249 9,900 50 Level New York Center
Sun 07:43:27 PM 41.1506 -74.6922 286° West 216 249 10,000 50 Climbing New York Center
Sun 07:44:27 PM 41.1706 -74.7842 286° West 229 264 10,000  Level New York Center
Sun 07:45:27 PM 41.2353 -74.7769 North 211 243 10,000  Level New York Center
Sun 07:46:27 PM 41.2661 -74.6656 70° East 240 276 10,000 -50 Level New York Center
Sun 07:47:27 PM 41.2775 -74.5697 81° East 274 315 9,900  Descending New York Center
Sun 07:48:27 PM 41.2644 -74.4531 98° East 285 328 10,000  Climbing New York Center
Sun 07:49:27 PM 41.2528 -74.3586 99° East 290 334 9,900  Descending New York Center
Sun 07:50:27 PM 41.2375 -74.2419 100° East 290 334 10,000 39 Climbing New York Center
Sun 07:52:01 PM 41.1500 -74.2333 176° South 232 267 10,000  Level New York TRACON
Sun 07:53:07 PM 41.1167 -74.3000 236° Southwest 231 266 10,000 50 Level New York TRACON
Sun 07:54:01 PM 41.0833 -74.3667 236° Southwest 233 268 10,100  Climbing New York TRACON
Sun 07:55:01 PM 41.1000 -74.4500 285° West 253 291 10,000 -48 Descending New York TRACON
Sun 07:56:07 PM 41.1333 -74.5500 294° West 254 292 10,000 48 Level New York TRACON
Sun 07:57:07 PM 41.1667 -74.6167 304° West 248 285 10,100  Climbing New York TRACON
Sun 07:58:07 PM 41.2333 -74.5667 29° Northeast 303 349 10,000  Descending New York TRACON
Sun 07:59:01 PM 41.2500 -74.4833 75° East 294 338 10,100 53 Climbing New York TRACON
Sun 08:00:01 PM 41.2500 -74.3667 90° East 279 321 10,100 -48 Level New York TRACON
Sun 08:01:07 PM 41.2333 -74.2667 102° East 280 322 10,000 -48 Descending New York TRACON
Sun 08:02:07 PM 41.1833 -74.2167 143° Southeast 255 293 10,000  Level New York TRACON
Sun 08:03:01 PM 41.1500 -74.2667 228° Southwest 211 243 10,000  Level New York TRACON
Sun 08:04:01 PM 41.1000 -74.3333 225° Southwest 219 252 10,000  Level New York TRACON
Sun 08:05:01 PM 41.0833 -74.4000 252° West 230 265 10,000  Level New York TRACON
Sun 08:06:01 PM 41.1000 -74.4833 285° West 234 269 10,000 50 Level New York TRACON
Sun 08:07:01 PM 41.1500 -74.5500 315° West 272 313 10,100  Climbing New York TRACON
Sun 08:08:01 PM 41.2000 -74.4833 45° Northeast 300 345 10,000  Descending New York TRACON
Sun 08:09:01 PM 41.2167 -74.3667 79° East 294 338 10,100 -200 Climbing New York TRACON
Sun 08:10:01 PM 41.2167 -74.2667 90° East 288 331 9,600 -500 Descending New York TRACON
Sun 08:11:01 PM 41.2333 -74.1667 77° East 283 326 9,100 -550 Descending New York TRACON
Sun 08:12:01 PM 41.2333 -74.0667 90° East 282 325 8,500 -800 Descending New York TRACON
Sun 08:13:01 PM 41.2167 -73.9667 102° East 259 298 7,500 -1,000 Descending New York TRACON
Sun 08:14:01 PM 41.1833 -73.8833 118° Southeast 251 289 6,500 -1,000 Descending New York TRACON
Sun 08:15:01 PM 41.1667 -73.8000 105° East 247 284 5,500 -1,048 Descending New York TRACON
Sun 08:16:07 PM 41.1500 -73.7000 102° East 238 274 4,300 -1,048 Descending New York TRACON
Sun 08:17:07 PM 41.1333 -73.6167 105° East 233 268 3,300 -650 Descending New York TRACON
Sun 08:18:07 PM 41.0833 -73.5667 143° Southeast 215 247 3,000 -150 Descending New York TRACON
Sun 08:19:07 PM 41.0333 -73.5167 143° Southeast 211 243 3,000  Level New York TRACON
Sun 08:20:07 PM 40.9833 -73.5000 166° South 210 242 3,000  Level New York TRACON
Sun 08:21:13 PM 40.9167 -73.4833 169° South 212 244 3,000  Level New York TRACON
Sun 08:22:08 PM 40.8833 -73.5333 229° Southwest 210 242 3,000  Level New York TRACON
Sun 08:23:08 PM 40.8500 -73.6000 237° Southwest 203 234 3,000  Level New York TRACON
Sun 08:24:13 PM 40.8000 -73.6333 207° Southwest 179 206 3,000 -240 Level New York TRACON
Sun 08:25:13 PM 40.7667 -73.6667 217° Southwest 160 184 2,500 -574 Descending New York TRACON
Sun 08:26:08 PM 40.7333 -73.6833 201° Southwest 137 158 1,900 -626 Descending New York TRACON
Sun 08:27:08 PM 40.7000 -73.7167 217° Southwest 118 136 1,300 -600 Descending New York TRACON
Sun 08:28:08 PM 40.6667 -73.7333 201° Southwest 122 140 700 -600 Descending New York TRACON
Sun 08:29:08 PM 40.6500 -73.7500 217° Southwest 134 154 100 -600 Descending New York TRACON
Sun 08:31:00 PM 40.6333 -73.7667 217° Southwest  Level FlightAware Approximate
Sun 08:38:00 PM 40.6398 -73.7789 217° Southwest  Level Estimated
Sun 08:39:00 PM 40.6398 -73.7789 217° Southwest  Level Estimated
Sun 08:40:00 PM 40.6398 -73.7789 217° Southwest  Level Estimated
Sun 08:41:00 PM 40.6398 -73.7789 217° Southwest  Level Estimated
Sun 08:42:00 PM 40.6398 -73.7789 217° Southwest  Level Estimated
Sun 08:43:00 PM 40.6398 -73.7789 217° Southwest  Level Estimated
Sun 08:44:00 PM 40.6398 -73.7789 217° Southwest  Level Estimated

Login

Don't have an account? Register now (free) for customized features, flight alerts, and more!